Time;durP1;ratioP1;P1;durP2;ratioP2;P2;SDS_P1;SDS_P2;PMS_P1;PMS_P2;Temp;Humidity;BMP_temperature;BMP_pressure;BME280_temperature;BME280_humidity;BME280_pressure;Samples;Min_cycle;Max_cycle;Signal;HPM_P1;HPM_P2
2021/08/19 00:00:16;;;;;;;18.87;16.90;;;17.30;99.90;;;;;;5058316;28;20462;-70
2021/08/19 00:02:44;;;;;;;18.80;16.80;;;17.20;99.90;;;;;;5052622;28;20455;-72
2021/08/19 00:05:11;;;;;;;17.50;15.63;;;17.30;99.90;;;;;;5051256;28;20456;-71
2021/08/19 00:07:39;;;;;;;16.87;15.17;;;17.40;99.90;;;;;;5059605;28;20459;-70
2021/08/19 00:10:10;;;;;;;17.47;15.70;;;17.40;99.90;;;;;;5053389;28;20520;-73
2021/08/19 00:12:37;;;;;;;18.73;17.00;;;17.40;99.90;;;;;;5060429;28;20462;-70
2021/08/19 00:15:06;;;;;;;19.70;16.73;;;17.30;99.90;;;;;;5055022;28;20463;-70
2021/08/19 00:17:34;;;;;;;18.93;15.97;;;17.30;99.90;;;;;;5063757;28;20458;-71
2021/08/19 00:20:03;;;;;;;17.70;15.93;;;17.40;99.90;;;;;;5055677;28;20547;-71
2021/08/19 00:22:33;;;;;;;17.00;15.50;;;17.50;99.90;;;;;;5057453;28;20460;-72
2021/08/19 00:25:00;;;;;;;17.17;15.77;;;17.40;99.90;;;;;;5052673;28;20455;-70
2021/08/19 00:27:28;;;;;;;18.07;16.47;;;17.30;99.90;;;;;;5056439;28;20840;-71
2021/08/19 00:29:54;;;;;;;22.53;16.17;;;17.30;99.90;;;;;;5062080;28;20491;-72
2021/08/19 00:32:23;;;;;;;18.43;16.23;;;17.30;99.90;;;;;;5057746;28;20464;-70
2021/08/19 00:34:51;;;;;;;21.00;16.60;;;17.40;99.90;;;;;;5059147;28;20501;-70
2021/08/19 00:37:20;;;;;;;17.60;15.77;;;17.40;99.90;;;;;;5060358;28;20454;-71
2021/08/19 00:39:48;;;;;;;17.40;15.73;;;17.40;99.90;;;;;;5053325;28;20956;-74
2021/08/19 00:42:17;;;;;;;16.87;15.27;;;17.50;99.90;;;;;;5051240;28;20652;-70
2021/08/19 00:44:45;;;;;;;17.97;16.30;;;17.40;99.90;;;;;;5052745;28;20466;-71
2021/08/19 00:47:13;;;;;;;18.87;16.20;;;17.50;99.90;;;;;;5055025;28;21017;-72
2021/08/19 00:49:40;;;;;;;17.67;15.97;;;17.50;99.90;;;;;;5060263;28;20498;-70
2021/08/19 00:52:11;;;;;;;18.30;16.53;;;17.50;99.90;;;;;;5057720;28;20463;-73
2021/08/19 00:54:39;;;;;;;17.70;16.10;;;17.50;99.90;;;;;;5056741;28;20834;-71
2021/08/19 00:57:08;;;;;;;16.90;15.40;;;17.50;99.90;;;;;;5058069;28;20814;-71
2021/08/19 00:59:37;;;;;;;16.63;15.20;;;17.50;99.90;;;;;;5053574;28;20460;-73
2021/08/19 01:02:07;;;;;;;17.53;15.60;;;17.50;99.90;;;;;;5053141;28;20467;-71
2021/08/19 01:04:37;;;;;;;18.43;16.67;;;17.40;99.90;;;;;;5055994;28;20467;-71
2021/08/19 01:07:05;;;;;;;17.30;15.60;;;17.50;99.90;;;;;;5054820;28;20486;-71
2021/08/19 01:09:35;;;;;;;18.80;16.77;;;17.50;99.90;;;;;;5060737;28;20929;-71
2021/08/19 01:12:04;;;;;;;23.60;17.50;;;17.50;99.90;;;;;;5053595;28;20464;-71
2021/08/19 01:14:31;;;;;;;18.77;16.83;;;17.60;99.90;;;;;;5053109;28;20812;-70
2021/08/19 01:16:59;;;;;;;16.90;15.37;;;17.50;99.90;;;;;;5064169;28;20487;-71
2021/08/19 01:19:27;;;;;;;17.27;15.77;;;17.60;99.90;;;;;;5048071;28;20455;-71
2021/08/19 01:21:55;;;;;;;16.77;15.37;;;17.50;99.90;;;;;;5052897;28;20491;-73
2021/08/19 01:24:23;;;;;;;18.20;16.17;;;17.60;99.90;;;;;;5057656;28;20464;-71
2021/08/19 01:26:53;;;;;;;18.83;17.00;;;17.60;99.90;;;;;;5051786;28;20451;-69
2021/08/19 01:29:22;;;;;;;18.67;16.47;;;17.60;99.90;;;;;;5056957;28;20493;-69
2021/08/19 01:32:00;;;;;;;16.40;15.00;;;17.60;99.90;;;;;;5050740;28;20462;-71
2021/08/19 01:34:28;;;;;;;18.23;15.87;;;17.60;99.90;;;;;;5048291;28;20455;-70
2021/08/19 01:36:56;;;;;;;19.63;17.07;;;17.60;99.90;;;;;;5054076;28;20814;-70
2021/08/19 01:39:24;;;;;;;18.43;16.70;;;17.60;99.90;;;;;;5051530;28;20463;-75
2021/08/19 01:41:50;;;;;;;16.90;15.60;;;17.60;99.90;;;;;;5055398;28;20456;-70
2021/08/19 01:44:19;;;;;;;17.80;15.90;;;17.70;99.90;;;;;;5049649;28;20467;-74
2021/08/19 01:46:51;;;;;;;17.83;15.90;;;17.60;99.90;;;;;;5053995;28;20825;-71
2021/08/19 01:49:18;;;;;;;17.87;16.47;;;17.50;99.90;;;;;;5056374;28;20558;-74
2021/08/19 01:51:45;;;;;;;17.60;15.80;;;17.50;99.90;;;;;;5051730;28;20457;-70
2021/08/19 01:54:14;;;;;;;17.83;16.10;;;17.50;99.90;;;;;;5060196;28;20490;-70
2021/08/19 01:56:43;;;;;;;17.13;15.30;;;17.50;99.90;;;;;;5054557;28;20505;-71
2021/08/19 01:59:10;;;;;;;16.80;15.20;;;17.60;99.90;;;;;;5055931;28;20471;-70
2021/08/19 02:01:37;;;;;;;16.13;14.77;;;17.60;99.90;;;;;;5057453;28;20459;-70
2021/08/19 02:04:05;;;;;;;21.17;16.20;;;17.60;99.90;;;;;;5054679;28;20463;-72
2021/08/19 02:06:33;;;;;;;17.20;15.50;;;17.60;99.90;;;;;;5058704;28;20466;-73
2021/08/19 02:09:01;;;;;;;16.97;15.20;;;17.50;99.90;;;;;;5047522;28;20492;-70
2021/08/19 02:11:28;;;;;;;17.40;15.70;;;17.50;99.90;;;;;;5054713;28;20822;-70
2021/08/19 02:13:55;;;;;;;18.07;16.37;;;17.60;99.90;;;;;;5053963;28;20463;-72
2021/08/19 02:16:25;;;;;;;17.97;16.10;;;17.60;99.90;;;;;;5049076;28;20485;-70
2021/08/19 02:18:52;;;;;;;17.00;15.37;;;17.50;99.90;;;;;;5047033;28;20796;-70
2021/08/19 02:21:21;;;;;;;16.83;15.13;;;17.50;99.90;;;;;;5058124;28;20455;-72
2021/08/19 02:23:48;;;;;;;20.43;15.27;;;17.50;99.90;;;;;;5056166;28;20458;-71
2021/08/19 02:26:15;;;;;;;17.93;16.13;;;17.60;99.90;;;;;;5057198;28;20467;-74
2021/08/19 02:28:42;;;;;;;17.20;15.50;;;17.50;99.90;;;;;;5054790;28;20979;-70
2021/08/19 02:31:10;;;;;;;17.63;16.00;;;17.30;99.90;;;;;;5053897;28;20470;-70
2021/08/19 02:33:37;;;;;;;17.50;15.50;;;17.40;99.90;;;;;;5050726;28;20481;-70
2021/08/19 02:36:05;;;;;;;17.33;15.40;;;17.40;99.90;;;;;;5047825;28;20562;-73
2021/08/19 02:38:33;;;;;;;17.93;16.13;;;17.40;99.90;;;;;;5051816;28;20460;-73
2021/08/19 02:41:00;;;;;;;16.33;14.70;;;17.30;99.90;;;;;;5049954;28;21001;-70
2021/08/19 02:43:28;;;;;;;15.40;14.10;;;17.40;99.90;;;;;;5057136;28;20463;-72
2021/08/19 02:45:55;;;;;;;18.77;16.03;;;17.30;99.90;;;;;;5056793;28;20494;-70
2021/08/19 02:48:23;;;;;;;18.60;16.60;;;17.30;99.90;;;;;;5058144;28;20471;-70
2021/08/19 02:50:50;;;;;;;17.30;15.80;;;17.20;99.90;;;;;;5054429;28;20491;-70
2021/08/19 02:53:19;;;;;;;18.67;16.90;;;17.30;99.90;;;;;;5054715;28;20496;-71
2021/08/19 02:55:48;;;;;;;17.47;15.70;;;17.20;99.90;;;;;;5055430;28;20897;-70
2021/08/19 02:58:16;;;;;;;17.30;15.80;;;17.30;99.90;;;;;;5058598;28;20821;-70
2021/08/19 03:00:43;;;;;;;19.23;16.10;;;17.30;99.90;;;;;;5053756;28;20458;-70
2021/08/19 03:03:11;;;;;;;17.83;16.17;;;17.30;99.90;;;;;;5046900;28;20525;-72
2021/08/19 03:05:38;;;;;;;17.33;15.73;;;17.30;99.90;;;;;;5058983;28;20520;-72
2021/08/19 03:08:05;;;;;;;18.03;16.13;;;17.30;99.90;;;;;;5051365;28;20491;-70
2021/08/19 03:10:32;;;;;;;17.43;15.90;;;17.40;99.90;;;;;;5053712;28;20491;-72
2021/08/19 03:13:00;;;;;;;18.13;16.47;;;17.40;99.90;;;;;;5061340;28;20462;-70
2021/08/19 03:15:29;;;;;;;16.90;15.60;;;17.50;99.90;;;;;;5057059;28;20463;-69
2021/08/19 03:17:56;;;;;;;18.17;16.30;;;17.40;99.90;;;;;;5054155;28;20978;-70
2021/08/19 03:20:24;;;;;;;19.27;15.83;;;17.40;99.90;;;;;;5056495;28;20544;-71
2021/08/19 03:22:51;;;;;;;17.50;15.80;;;17.40;99.90;;;;;;5049440;28;20478;-70
2021/08/19 03:25:18;;;;;;;18.00;16.27;;;17.40;99.90;;;;;;5055179;28;20459;-74
2021/08/19 03:27:45;;;;;;;18.13;16.43;;;17.40;99.90;;;;;;5053105;28;20795;-71
2021/08/19 03:30:15;;;;;;;19.67;15.90;;;17.40;99.90;;;;;;5058342;28;20557;-71
2021/08/19 03:32:42;;;;;;;19.53;17.70;;;17.40;99.90;;;;;;5056255;28;20464;-74
2021/08/19 03:35:10;;;;;;;19.43;17.57;;;17.40;99.90;;;;;;5056259;28;20455;-71
2021/08/19 03:37:37;;;;;;;19.20;17.50;;;17.40;99.90;;;;;;5054962;28;20542;-70
2021/08/19 03:40:06;;;;;;;17.40;16.00;;;17.30;99.90;;;;;;5050860;28;20460;-71
2021/08/19 03:42:35;;;;;;;17.20;15.60;;;17.30;99.90;;;;;;5057927;28;20446;-70
2021/08/19 03:45:04;;;;;;;18.47;16.57;;;17.30;99.90;;;;;;5058604;28;20457;-71
2021/08/19 03:47:32;;;;;;;16.57;14.97;;;17.30;99.90;;;;;;5054215;28;20538;-73
2021/08/19 03:49:59;;;;;;;16.47;15.23;;;17.40;99.90;;;;;;5057325;28;20491;-72
2021/08/19 03:52:26;;;;;;;17.63;16.00;;;17.50;99.90;;;;;;5061747;28;20478;-71
2021/08/19 03:54:54;;;;;;;17.00;15.50;;;17.40;99.90;;;;;;5050403;28;20566;-70
2021/08/19 03:57:21;;;;;;;17.30;15.70;;;17.40;99.90;;;;;;5056884;28;20505;-72
2021/08/19 03:59:49;;;;;;;16.30;15.03;;;17.50;99.90;;;;;;5054938;28;20967;-72
2021/08/19 04:02:17;;;;;;;19.50;15.37;;;17.50;99.90;;;;;;5062956;28;20462;-70
2021/08/19 04:04:46;;;;;;;17.47;15.87;;;17.40;99.90;;;;;;5053414;28;20488;-71
2021/08/19 04:07:13;;;;;;;16.60;15.10;;;17.40;99.90;;;;;;5054033;28;20451;-74
2021/08/19 04:09:41;;;;;;;18.03;15.30;;;17.30;99.90;;;;;;5061141;28;20507;-72
2021/08/19 04:12:08;;;;;;;15.90;14.60;;;17.40;99.90;;;;;;5056716;28;20454;-71
2021/08/19 04:14:36;;;;;;;16.83;15.53;;;17.40;99.90;;;;;;5057079;28;20692;-71
2021/08/19 04:17:03;;;;;;;17.17;15.60;;;17.30;99.90;;;;;;5059811;28;20480;-71
2021/08/19 04:19:30;;;;;;;15.70;14.30;;;17.30;99.90;;;;;;5063829;28;20468;-71
2021/08/19 04:22:01;;;;;;;16.27;14.57;;;17.30;99.90;;;;;;5055912;28;20459;-70
2021/08/19 04:24:28;;;;;;;16.50;14.90;;;17.30;99.90;;;;;;5057941;28;20461;-74
2021/08/19 04:26:55;;;;;;;15.77;14.60;;;17.40;99.90;;;;;;5057836;28;20455;-73
2021/08/19 04:29:22;;;;;;;16.70;15.17;;;17.40;99.90;;;;;;5054677;28;20473;-74
2021/08/19 04:31:49;;;;;;;16.10;14.97;;;17.40;99.90;;;;;;5054612;28;20466;-72
2021/08/19 04:34:16;;;;;;;15.73;14.23;;;17.40;99.90;;;;;;5057862;28;20471;-71
2021/08/19 04:36:45;;;;;;;15.73;14.40;;;17.40;99.90;;;;;;5049716;28;20454;-73
2021/08/19 04:39:13;;;;;;;16.03;14.63;;;17.40;99.90;;;;;;5057299;28;20484;-75
2021/08/19 04:41:42;;;;;;;16.93;15.23;;;17.30;99.90;;;;;;5057434;28;20966;-74
2021/08/19 04:44:10;;;;;;;17.33;15.80;;;17.30;99.90;;;;;;5057108;28;20459;-71
2021/08/19 04:46:37;;;;;;;16.77;15.10;;;17.30;99.90;;;;;;5056318;28;20450;-72
2021/08/19 04:49:05;;;;;;;17.20;15.70;;;17.30;99.90;;;;;;5056362;28;20784;-72
2021/08/19 04:51:34;;;;;;;16.50;14.90;;;17.30;99.90;;;;;;5050466;28;20900;-72
2021/08/19 04:54:01;;;;;;;17.13;15.50;;;17.30;99.90;;;;;;5061018;28;20799;-72
2021/08/19 04:56:36;;;;;;;17.87;16.10;;;17.30;99.90;;;;;;5056986;28;20467;-70
2021/08/19 04:59:04;;;;;;;17.93;15.90;;;17.30;99.90;;;;;;5049582;28;21037;-68
2021/08/19 05:01:31;;;;;;;19.03;17.03;;;17.40;99.90;;;;;;5061198;28;20463;-72
2021/08/19 05:03:59;;;;;;;19.57;17.60;;;17.40;99.90;;;;;;5056968;28;20455;-69
2021/08/19 05:06:28;;;;;;;20.50;17.63;;;17.50;99.90;;;;;;5052284;28;20451;-70
2021/08/19 05:08:56;;;;;;;18.93;17.33;;;17.50;99.90;;;;;;5058755;28;20542;-70
2021/08/19 05:11:24;;;;;;;20.23;18.43;;;17.50;99.90;;;;;;5055503;28;20490;-70
2021/08/19 05:13:57;;;;;;;19.97;18.10;;;17.40;99.90;;;;;;5061344;28;20471;-73
2021/08/19 05:16:24;;;;;;;21.17;18.97;;;17.40;99.90;;;;;;5059514;28;20554;-70
2021/08/19 05:18:51;;;;;;;21.37;19.20;;;17.40;99.90;;;;;;5054081;28;20463;-70
2021/08/19 05:21:18;;;;;;;20.73;18.23;;;17.40;99.90;;;;;;5057231;28;20819;-72
2021/08/19 05:23:45;;;;;;;19.40;17.50;;;17.40;99.90;;;;;;5059241;28;20459;-69
2021/08/19 05:26:13;;;;;;;20.13;17.87;;;17.30;99.90;;;;;;5052630;28;20977;-69
2021/08/19 05:28:40;;;;;;;20.40;18.30;;;17.30;99.90;;;;;;5058344;28;20593;-70
2021/08/19 05:31:08;;;;;;;19.87;17.93;;;17.30;99.90;;;;;;5059898;28;20490;-70
2021/08/19 05:33:37;;;;;;;23.63;18.87;;;17.30;99.90;;;;;;5047386;28;20457;-71
2021/08/19 05:36:08;;;;;;;23.10;18.03;;;17.40;99.90;;;;;;5050810;28;20467;-70
2021/08/19 05:38:34;;;;;;;23.53;18.60;;;17.40;99.90;;;;;;5054070;28;20552;-69
2021/08/19 05:41:01;;;;;;;20.10;18.10;;;17.30;99.90;;;;;;5052894;28;20468;-70
2021/08/19 05:43:28;;;;;;;21.03;18.70;;;17.30;99.90;;;;;;5061167;28;20467;-71
2021/08/19 05:45:55;;;;;;;19.97;17.93;;;17.30;99.90;;;;;;5051965;28;20463;-72
2021/08/19 05:48:24;;;;;;;20.73;18.90;;;17.30;99.90;;;;;;5055615;28;20464;-69
2021/08/19 05:50:51;;;;;;;19.57;17.67;;;17.40;99.90;;;;;;5068189;28;20582;-69
2021/08/19 05:53:18;;;;;;;20.07;17.80;;;17.50;99.90;;;;;;5065811;28;20467;-71
2021/08/19 05:55:45;;;;;;;20.40;18.50;;;17.50;99.90;;;;;;5042936;28;20455;-72
2021/08/19 05:58:14;;;;;;;19.17;17.37;;;17.50;99.90;;;;;;5049210;28;20476;-73
2021/08/19 06:00:41;;;;;;;19.87;18.10;;;17.60;99.90;;;;;;5052663;28;20549;-72
2021/08/19 06:03:08;;;;;;;19.83;18.10;;;17.70;99.90;;;;;;5044015;28;20482;-70
2021/08/19 06:05:39;;;;;;;18.77;17.27;;;17.60;99.90;;;;;;5048119;28;20471;-70
2021/08/19 06:08:06;;;;;;;16.40;15.20;;;17.70;99.90;;;;;;5041078;28;20961;-70
2021/08/19 06:10:33;;;;;;;18.37;16.13;;;17.70;99.90;;;;;;5050908;28;20480;-73
2021/08/19 06:13:01;;;;;;;16.90;15.50;;;17.70;99.90;;;;;;5049493;28;20462;-69
2021/08/19 06:15:28;;;;;;;17.83;16.43;;;17.60;99.90;;;;;;5051662;28;20549;-73
2021/08/19 06:17:55;;;;;;;18.33;16.83;;;17.60;99.90;;;;;;5054141;28;20455;-70
2021/08/19 06:20:22;;;;;;;18.00;16.40;;;17.70;99.90;;;;;;5053988;28;20455;-69
2021/08/19 06:22:52;;;;;;;18.13;16.53;;;17.80;99.90;;;;;;5048030;28;20468;-71
2021/08/19 06:25:20;;;;;;;17.37;15.97;;;17.80;99.90;;;;;;5047913;28;20467;-69
2021/08/19 06:27:47;;;;;;;18.50;16.80;;;18.00;99.90;;;;;;5053965;28;20463;-69
2021/08/19 06:30:14;;;;;;;17.33;15.97;;;18.00;99.90;;;;;;5047188;28;20492;-69
2021/08/19 06:32:41;;;;;;;19.67;17.87;;;18.10;99.90;;;;;;5050013;28;20462;-70
2021/08/19 06:35:09;;;;;;;18.40;17.00;;;17.90;99.90;;;;;;5049860;28;20463;-70
2021/08/19 06:37:36;;;;;;;18.90;17.03;;;17.80;99.90;;;;;;5050079;28;20467;-69
2021/08/19 06:40:06;;;;;;;19.93;18.07;;;17.90;99.90;;;;;;5043481;28;20459;-69
2021/08/19 06:42:33;;;;;;;19.87;18.07;;;17.90;99.90;;;;;;5049341;28;20467;-72
2021/08/19 06:45:00;;;;;;;20.43;18.37;;;18.00;99.90;;;;;;5043429;28;20477;-71
2021/08/19 06:47:27;;;;;;;21.00;19.20;;;17.90;99.90;;;;;;5052313;28;20467;-69
2021/08/19 06:49:53;;;;;;;20.40;18.67;;;18.00;99.90;;;;;;5047472;28;20508;-69
2021/08/19 06:52:20;;;;;;;19.13;17.40;;;18.00;99.90;;;;;;5045822;28;20487;-69
2021/08/19 06:54:47;;;;;;;18.80;17.20;;;18.00;99.90;;;;;;5053246;28;20481;-72
2021/08/19 06:57:15;;;;;;;19.37;17.67;;;17.90;99.90;;;;;;5051214;28;20866;-69
2021/08/19 06:59:42;;;;;;;19.53;17.90;;;17.90;99.90;;;;;;5052048;28;20728;-69
2021/08/19 07:02:09;;;;;;;20.20;18.30;;;18.00;99.90;;;;;;5056022;28;20822;-70
2021/08/19 07:04:36;;;;;;;20.03;18.23;;;18.00;99.90;;;;;;5052895;28;20461;-69
2021/08/19 07:07:03;;;;;;;20.07;18.23;;;18.00;99.90;;;;;;5056278;28;20467;-69
2021/08/19 07:09:31;;;;;;;22.90;19.87;;;18.00;99.90;;;;;;5050794;28;20459;-69
2021/08/19 07:11:57;;;;;;;20.20;18.40;;;18.00;99.90;;;;;;5051491;28;20498;-68
2021/08/19 07:14:25;;;;;;;20.57;18.70;;;17.90;99.90;;;;;;5053346;28;20833;-71
2021/08/19 07:16:52;;;;;;;21.00;18.90;;;17.90;99.90;;;;;;5053862;28;20484;-69
2021/08/19 07:19:19;;;;;;;21.70;19.90;;;17.90;99.90;;;;;;5048902;28;20467;-69
2021/08/19 07:21:46;;;;;;;21.10;19.40;;;18.00;99.90;;;;;;5050838;28;20469;-71
2021/08/19 07:24:13;;;;;;;22.97;19.00;;;18.10;99.90;;;;;;5052057;28;20505;-68
2021/08/19 07:26:40;;;;;;;20.60;18.90;;;18.00;99.90;;;;;;5052867;28;20973;-68
2021/08/19 07:29:08;;;;;;;22.60;19.27;;;18.20;99.90;;;;;;5056143;28;20569;-69
2021/08/19 07:31:39;;;;;;;22.87;20.57;;;18.10;99.90;;;;;;5050280;28;20489;-69
2021/08/19 07:34:06;;;;;;;22.67;20.53;;;18.30;99.90;;;;;;5045668;28;20463;-72
2021/08/19 07:36:33;;;;;;;21.70;19.70;;;18.50;99.90;;;;;;5048542;28;20474;-69
2021/08/19 07:39:03;;;;;;;22.50;20.50;;;18.50;99.90;;;;;;5055110;28;20550;-68
2021/08/19 07:41:31;;;;;;;21.60;19.80;;;18.50;99.90;;;;;;5057655;28;20446;-69
2021/08/19 07:43:58;;;;;;;21.70;19.90;;;18.40;99.90;;;;;;5045718;28;20460;-70
2021/08/19 07:46:26;;;;;;;23.67;21.50;;;18.50;99.90;;;;;;5049751;28;20473;-69
2021/08/19 07:48:56;;;;;;;23.17;21.30;;;18.50;99.90;;;;;;5047684;28;20489;-68
2021/08/19 07:51:23;;;;;;;22.30;20.50;;;18.50;99.90;;;;;;5047185;28;20487;-72
2021/08/19 07:53:50;;;;;;;22.20;20.40;;;18.50;99.90;;;;;;5049047;28;20860;-68
2021/08/19 07:56:17;;;;;;;22.13;20.30;;;18.40;99.90;;;;;;5050353;28;20574;-71
2021/08/19 07:58:44;;;;;;;22.07;20.07;;;18.40;99.90;;;;;;5051005;28;20496;-68
2021/08/19 08:01:11;;;;;;;22.90;20.50;;;18.20;99.90;;;;;;5053050;28;20487;-69
2021/08/19 08:03:38;;;;;;;23.03;20.80;;;18.30;99.90;;;;;;5049978;28;20508;-70
2021/08/19 08:06:06;;;;;;;22.70;20.60;;;18.50;99.90;;;;;;5050392;28;20462;-69
2021/08/19 08:08:34;;;;;;;21.97;20.37;;;18.50;99.90;;;;;;5045924;28;21029;-70
2021/08/19 08:11:01;;;;;;;23.30;21.10;;;18.40;99.90;;;;;;5056481;28;20601;-69
2021/08/19 08:13:28;;;;;;;21.17;19.57;;;18.50;99.90;;;;;;5046039;28;20460;-69
2021/08/19 08:15:55;;;;;;;23.07;20.83;;;18.60;99.90;;;;;;5048439;28;20574;-69
2021/08/19 08:18:22;;;;;;;22.83;20.93;;;18.80;99.90;;;;;;5052991;28;20499;-71
2021/08/19 08:20:49;;;;;;;21.83;20.13;;;18.70;99.90;;;;;;5053615;28;20459;-69
2021/08/19 08:23:19;;;;;;;23.20;21.37;;;18.70;99.90;;;;;;5049662;28;20468;-69
2021/08/19 08:25:47;;;;;;;22.07;20.27;;;19.10;99.90;;;;;;5055837;28;21148;-71
2021/08/19 08:28:15;;;;;;;21.10;19.30;;;19.40;99.90;;;;;;5051079;28;20463;-73
2021/08/19 08:30:45;;;;;;;20.33;18.73;;;19.50;99.90;;;;;;5056225;28;20453;-71
2021/08/19 08:33:12;;;;;;;22.20;20.30;;;19.60;99.90;;;;;;5051157;28;20491;-71
2021/08/19 08:35:39;;;;;;;20.70;19.30;;;19.80;99.90;;;;;;5053204;28;20517;-68
2021/08/19 08:38:07;;;;;;;21.93;20.13;;;19.80;99.90;;;;;;5052427;28;20532;-69
2021/08/19 08:40:38;;;;;;;20.50;19.10;;;19.70;99.90;;;;;;5048577;28;20461;-71
2021/08/19 08:43:05;;;;;;;22.03;20.43;;;19.40;99.90;;;;;;5050019;28;20927;-71
2021/08/19 08:45:34;;;;;;;21.27;19.57;;;19.30;99.90;;;;;;5053445;28;20462;-70
2021/08/19 08:48:02;;;;;;;19.97;18.67;;;19.70;99.90;;;;;;5051638;28;20471;-69
2021/08/19 08:50:29;;;;;;;21.30;19.70;;;19.90;99.90;;;;;;5048097;28;20459;-70
2021/08/19 08:52:58;;;;;;;22.27;19.53;;;19.70;99.90;;;;;;5052535;28;20494;-70
2021/08/19 08:55:25;;;;;;;19.50;18.10;;;19.70;99.90;;;;;;5052325;28;20484;-70
2021/08/19 08:57:54;;;;;;;21.03;19.30;;;19.60;99.90;;;;;;5051790;28;20467;-70
2021/08/19 09:00:22;;;;;;;19.80;18.50;;;19.50;99.90;;;;;;5047084;28;20986;-70
2021/08/19 09:02:48;;;;;;;18.90;17.70;;;19.60;99.90;;;;;;5048270;28;20464;-70
2021/08/19 09:05:21;;;;;;;19.10;17.90;;;19.80;99.90;;;;;;5053385;28;20840;-70
2021/08/19 09:07:53;;;;;;;19.33;18.13;;;20.10;99.90;;;;;;5053523;28;20460;-69
2021/08/19 09:10:21;;;;;;;19.97;18.47;;;20.10;99.90;;;;;;5052968;28;20518;-70
2021/08/19 09:12:48;;;;;;;19.20;17.80;;;19.90;99.90;;;;;;5050525;28;20526;-70
2021/08/19 09:15:19;;;;;;;19.77;18.37;;;19.80;99.90;;;;;;5053916;28;20456;-71
2021/08/19 09:17:52;;;;;;;21.03;19.00;;;19.80;99.90;;;;;;5049215;28;20760;-70
2021/08/19 09:20:20;;;;;;;20.30;18.50;;;20.00;99.90;;;;;;5056157;28;20460;-74
2021/08/19 09:22:52;;;;;;;20.37;18.87;;;20.10;99.90;;;;;;5044843;28;20459;-72
2021/08/19 09:25:27;;;;;;;19.57;18.27;;;19.90;99.90;;;;;;5047625;28;21008;-71
2021/08/19 09:28:17;;;;;;;20.60;19.00;;;20.10;99.90;;;;;;5055290;28;20990;-72
2021/08/19 09:30:48;;;;;;;21.27;19.80;;;20.30;99.90;;;;;;5053517;28;20463;-70
2021/08/19 09:33:18;;;;;;;20.27;18.77;;;20.30;99.90;;;;;;5056851;28;20466;-71
2021/08/19 09:35:46;;;;;;;18.57;17.37;;;20.50;99.90;;;;;;5050172;28;20475;-72
2021/08/19 09:38:14;;;;;;;17.70;16.60;;;20.60;99.90;;;;;;5046797;28;21029;-71
2021/08/19 09:40:43;;;;;;;18.13;16.90;;;20.70;99.90;;;;;;5045967;28;21162;-70
2021/08/19 09:43:13;;;;;;;17.67;16.63;;;20.70;99.90;;;;;;5046582;28;20456;-70
2021/08/19 09:45:47;;;;;;;19.17;17.63;;;20.40;99.90;;;;;;5049337;28;20471;-70
2021/08/19 09:48:15;;;;;;;18.97;17.43;;;20.20;99.90;;;;;;5052503;28;20951;-70
2021/08/19 09:50:43;;;;;;;17.97;16.67;;;20.20;99.90;;;;;;5047179;28;20459;-74
2021/08/19 09:53:23;;;;;;;18.70;17.40;;;20.30;99.90;;;;;;5054121;28;20495;-72
2021/08/19 09:55:51;;;;;;;18.27;16.97;;;20.10;99.90;;;;;;5045599;28;20508;-71
2021/08/19 09:58:32;;;;;;;17.63;16.43;;;20.10;99.90;;;;;;5043911;28;20541;-71
2021/08/19 10:01:01;;;;;;;18.20;17.10;;;20.00;99.90;;;;;;5047819;28;20491;-70
2021/08/19 10:03:28;;;;;;;18.33;17.13;;;20.30;99.90;;;;;;5050093;28;20467;-71
2021/08/19 10:05:56;;;;;;;18.77;16.90;;;20.40;99.90;;;;;;5052420;28;20494;-71
2021/08/19 10:08:24;;;;;;;18.30;16.90;;;20.40;99.90;;;;;;5041093;28;20451;-70
2021/08/19 10:10:56;;;;;;;19.00;17.63;;;20.10;99.90;;;;;;5046566;28;20452;-72
2021/08/19 10:13:24;;;;;;;19.13;17.77;;;20.00;99.90;;;;;;5047013;28;21012;-70
2021/08/19 10:15:52;;;;;;;18.30;17.00;;;19.90;99.90;;;;;;5054893;28;21111;-71
2021/08/19 10:18:25;;;;;;;19.30;17.93;;;20.00;99.90;;;;;;5050124;28;20499;-72
2021/08/19 10:21:00;;;;;;;20.10;18.50;;;20.10;99.90;;;;;;5048969;28;20939;-75
2021/08/19 10:23:28;;;;;;;20.30;18.70;;;20.00;99.90;;;;;;5051173;28;20457;-70
2021/08/19 10:26:06;;;;;;;18.90;17.50;;;19.90;99.90;;;;;;5048812;28;20470;-69
2021/08/19 10:28:51;;;;;;;19.53;18.30;;;20.00;99.90;;;;;;5056452;28;20455;-72
2021/08/19 10:31:41;;;;;;;19.20;17.80;;;20.00;99.90;;;;;;5052590;28;21056;-71
2021/08/19 10:34:10;;;;;;;19.67;18.27;;;20.30;99.90;;;;;;5044481;28;20462;-73
2021/08/19 10:36:51;;;;;;;19.10;17.90;;;20.60;99.90;;;;;;5042748;28;21148;-70
2021/08/19 10:39:37;;;;;;;18.80;17.60;;;20.60;99.90;;;;;;5049566;28;20459;-70
2021/08/19 10:42:04;;;;;;;19.77;18.30;;;20.40;99.90;;;;;;5053523;28;20460;-72
2021/08/19 10:44:33;;;;;;;19.20;17.70;;;20.40;99.90;;;;;;5055944;28;20522;-70
2021/08/19 10:47:01;;;;;;;20.07;18.67;;;20.50;99.90;;;;;;5054561;28;20466;-70
2021/08/19 10:49:40;;;;;;;20.33;18.70;;;20.30;99.90;;;;;;5056676;28;20447;-70
2021/08/19 10:52:27;;;;;;;20.93;19.33;;;20.10;99.90;;;;;;5051684;28;21204;-69
2021/08/19 10:55:11;;;;;;;18.53;17.33;;;20.00;99.90;;;;;;5046360;28;20471;-72
2021/08/19 10:57:56;;;;;;;20.57;19.03;;;19.80;99.90;;;;;;5052980;28;20460;-69
2021/08/19 11:00:40;;;;;;;20.33;18.70;;;20.00;99.90;;;;;;5048457;28;20455;-70
2021/08/19 11:03:44;;;;;;;18.40;17.30;;;20.10;99.90;;;;;;5053852;28;20463;-69
2021/08/19 11:06:14;;;;;;;19.00;17.70;;;20.20;99.90;;;;;;5052777;28;20505;-70
2021/08/19 11:08:54;;;;;;;19.13;17.73;;;20.40;99.90;;;;;;5054862;28;20499;-70
2021/08/19 11:11:30;;;;;;;18.90;17.80;;;20.40;99.90;;;;;;5046930;28;20461;-72
2021/08/19 11:14:07;;;;;;;20.10;18.80;;;20.80;99.90;;;;;;5050875;28;20490;-71
2021/08/19 11:16:35;;;;;;;20.50;19.10;;;20.90;99.90;;;;;;5052683;28;20569;-70
2021/08/19 11:19:13;;;;;;;20.30;18.80;;;20.70;99.90;;;;;;5052517;28;20458;-74
2021/08/19 11:21:42;;;;;;;17.90;16.80;;;20.70;99.90;;;;;;5048890;28;20443;-70
2021/08/19 11:24:10;;;;;;;18.93;17.80;;;21.00;99.90;;;;;;5050278;28;20470;-70
2021/08/19 11:26:38;;;;;;;17.33;16.23;;;21.10;99.90;;;;;;5053694;28;20898;-70
2021/08/19 11:29:05;;;;;;;17.70;16.70;;;21.20;99.90;;;;;;5052917;28;20463;-71
2021/08/19 11:31:38;;;;;;;17.00;16.00;;;21.70;99.90;;;;;;5051161;28;20946;-71
2021/08/19 11:34:06;;;;;;;17.37;16.27;;;22.00;99.90;;;;;;5052098;28;20460;-73
2021/08/19 11:36:34;;;;;;;16.40;15.10;;;22.50;99.90;;;;;;5047321;28;20562;-69
2021/08/19 11:39:05;;;;;;;16.80;15.80;;;22.70;99.90;;;;;;5052019;28;20451;-70
2021/08/19 11:41:33;;;;;;;17.07;16.07;;;23.10;99.90;;;;;;5061755;28;20516;-74
2021/08/19 11:44:01;;;;;;;17.07;16.07;;;23.50;99.90;;;;;;5045704;28;20469;-71
2021/08/19 11:46:29;;;;;;;17.27;16.03;;;23.30;99.90;;;;;;5045318;28;20459;-70
2021/08/19 11:48:59;;;;;;;16.90;16.00;;;22.90;99.90;;;;;;5050955;28;20464;-71
2021/08/19 11:51:28;;;;;;;16.53;15.63;;;22.90;99.90;;;;;;5055498;28;20902;-72
2021/08/19 11:53:57;;;;;;;16.00;15.07;;;23.10;99.90;;;;;;5044654;28;20958;-71
2021/08/19 11:56:29;;;;;;;15.80;15.00;;;22.60;99.90;;;;;;5046903;28;20455;-69
2021/08/19 11:59:07;;;;;;;16.20;15.40;;;22.40;99.90;;;;;;5052369;28;20459;-69
2021/08/19 12:01:35;;;;;;;16.47;15.57;;;21.90;99.90;;;;;;5052552;28;20938;-69
2021/08/19 12:04:02;;;;;;;15.40;14.70;;;21.60;99.90;;;;;;5057495;28;20466;-71
2021/08/19 12:06:32;;;;;;;15.80;14.67;;;21.90;99.90;;;;;;5055977;28;20958;-69
2021/08/19 12:09:03;;;;;;;16.13;15.00;;;21.80;99.90;;;;;;5049087;28;20485;-69
2021/08/19 12:11:33;;;;;;;15.63;14.80;;;21.70;99.90;;;;;;5052953;28;20526;-69
2021/08/19 12:14:01;;;;;;;16.27;15.43;;;21.60;99.90;;;;;;5051411;28;20506;-69
2021/08/19 12:16:29;;;;;;;15.80;15.00;;;21.40;99.90;;;;;;5052142;28;21020;-69
2021/08/19 12:19:11;;;;;;;14.70;14.00;;;21.40;99.90;;;;;;5052053;28;20466;-69
2021/08/19 12:21:40;;;;;;;15.37;14.57;;;21.20;99.90;;;;;;5046708;28;20464;-71
2021/08/19 12:24:18;;;;;;;14.40;13.70;;;21.40;99.90;;;;;;5054031;28;20459;-69
2021/08/19 12:27:06;;;;;;;15.10;14.20;;;21.60;99.90;;;;;;5049119;28;20471;-73
2021/08/19 12:29:35;;;;;;;16.00;14.80;;;22.00;99.90;;;;;;5054692;28;20455;-69
2021/08/19 12:32:02;;;;;;;15.27;14.47;;;22.10;99.90;;;;;;5049888;28;20909;-69
2021/08/19 12:34:30;;;;;;;15.17;14.30;;;22.60;99.90;;;;;;5053163;28;20541;-69
2021/08/19 12:37:07;;;;;;;15.43;14.63;;;23.40;99.90;;;;;;5047551;28;20882;-67